sensor_id;sensor_type;location;lat;lon;timestamp;P1;durP1;ratioP1;P2;durP2;ratioP2
74375;SDS011;62812;55.188;61.302;2024-02-28T00:02:00;5.80;;;1.05;;
74375;SDS011;62812;55.188;61.302;2024-02-28T00:04:28;4.82;;;0.80;;
74375;SDS011;62812;55.188;61.302;2024-02-28T00:06:55;5.97;;;1.05;;
74375;SDS011;62812;55.188;61.302;2024-02-28T00:09:22;8.30;;;1.17;;
74375;SDS011;62812;55.188;61.302;2024-02-28T00:11:49;10.40;;;1.05;;
74375;SDS011;62812;55.188;61.302;2024-02-28T00:14:16;3.22;;;0.63;;
74375;SDS011;62812;55.188;61.302;2024-02-28T00:16:42;7.55;;;1.50;;
74375;SDS011;62812;55.188;61.302;2024-02-28T00:19:11;6.72;;;1.00;;
74375;SDS011;62812;55.188;61.302;2024-02-28T00:21:40;5.97;;;1.60;;
74375;SDS011;62812;55.188;61.302;2024-02-28T00:24:07;3.50;;;0.90;;
74375;SDS011;62812;55.188;61.302;2024-02-28T00:26:34;3.88;;;0.77;;
74375;SDS011;62812;55.188;61.302;2024-02-28T00:29:00;2.72;;;0.52;;
74375;SDS011;62812;55.188;61.302;2024-02-28T00:31:28;3.63;;;0.65;;
74375;SDS011;62812;55.188;61.302;2024-02-28T00:33:55;3.30;;;0.90;;
74375;SDS011;62812;55.188;61.302;2024-02-28T00:36:22;4.90;;;1.02;;
74375;SDS011;62812;55.188;61.302;2024-02-28T00:38:50;5.25;;;0.85;;
74375;SDS011;62812;55.188;61.302;2024-02-28T00:41:17;6.22;;;0.77;;
74375;SDS011;62812;55.188;61.302;2024-02-28T00:43:45;2.67;;;0.40;;
74375;SDS011;62812;55.188;61.302;2024-02-28T00:46:12;4.63;;;0.80;;
74375;SDS011;62812;55.188;61.302;2024-02-28T00:48:39;3.53;;;0.68;;
74375;SDS011;62812;55.188;61.302;2024-02-28T00:51:06;4.05;;;0.98;;
74375;SDS011;62812;55.188;61.302;2024-02-28T00:53:34;11.25;;;0.85;;
74375;SDS011;62812;55.188;61.302;2024-02-28T00:56:02;4.95;;;1.10;;
74375;SDS011;62812;55.188;61.302;2024-02-28T00:58:29;6.47;;;0.85;;
74375;SDS011;62812;55.188;61.302;2024-02-28T01:00:56;9.95;;;1.30;;
74375;SDS011;62812;55.188;61.302;2024-02-28T01:03:23;3.20;;;0.70;;
74375;SDS011;62812;55.188;61.302;2024-02-28T01:05:50;24.85;;;2.05;;
74375;SDS011;62812;55.188;61.302;2024-02-28T01:08:17;7.63;;;1.48;;
74375;SDS011;62812;55.188;61.302;2024-02-28T01:10:44;10.77;;;2.17;;
74375;SDS011;62812;55.188;61.302;2024-02-28T01:13:12;20.63;;;2.35;;
74375;SDS011;62812;55.188;61.302;2024-02-28T01:15:40;25.45;;;3.83;;
74375;SDS011;62812;55.188;61.302;2024-02-28T01:18:08;26.23;;;3.13;;
74375;SDS011;62812;55.188;61.302;2024-02-28T01:20:36;25.05;;;2.85;;
74375;SDS011;62812;55.188;61.302;2024-02-28T01:23:02;23.40;;;2.47;;
74375;SDS011;62812;55.188;61.302;2024-02-28T01:25:29;29.13;;;2.35;;
74375;SDS011;62812;55.188;61.302;2024-02-28T01:27:56;18.73;;;3.80;;
74375;SDS011;62812;55.188;61.302;2024-02-28T01:30:27;9.32;;;1.80;;
74375;SDS011;62812;55.188;61.302;2024-02-28T01:32:54;28.30;;;3.20;;
74375;SDS011;62812;55.188;61.302;2024-02-28T01:35:20;10.27;;;2.70;;
74375;SDS011;62812;55.188;61.302;2024-02-28T01:37:47;14.80;;;1.90;;
74375;SDS011;62812;55.188;61.302;2024-02-28T01:40:14;20.17;;;2.30;;
74375;SDS011;62812;55.188;61.302;2024-02-28T01:42:41;20.00;;;2.70;;
74375;SDS011;62812;55.188;61.302;2024-02-28T01:45:08;23.50;;;2.92;;
74375;SDS011;62812;55.188;61.302;2024-02-28T01:47:40;26.38;;;3.20;;
74375;SDS011;62812;55.188;61.302;2024-02-28T01:50:07;25.52;;;2.40;;
74375;SDS011;62812;55.188;61.302;2024-02-28T01:52:35;25.35;;;2.65;;
74375;SDS011;62812;55.188;61.302;2024-02-28T01:55:02;21.63;;;2.78;;
74375;SDS011;62812;55.188;61.302;2024-02-28T01:57:29;31.25;;;3.53;;
74375;SDS011;62812;55.188;61.302;2024-02-28T01:59:56;17.77;;;3.17;;
74375;SDS011;62812;55.188;61.302;2024-02-28T02:02:22;26.80;;;3.20;;
74375;SDS011;62812;55.188;61.302;2024-02-28T02:04:50;30.33;;;3.05;;
74375;SDS011;62812;55.188;61.302;2024-02-28T02:07:21;13.65;;;2.40;;
74375;SDS011;62812;55.188;61.302;2024-02-28T02:09:47;20.30;;;2.40;;
74375;SDS011;62812;55.188;61.302;2024-02-28T02:12:14;27.27;;;3.03;;
74375;SDS011;62812;55.188;61.302;2024-02-28T02:14:41;34.72;;;4.70;;
74375;SDS011;62812;55.188;61.302;2024-02-28T02:17:08;25.33;;;3.23;;
74375;SDS011;62812;55.188;61.302;2024-02-28T02:19:34;28.45;;;3.22;;
74375;SDS011;62812;55.188;61.302;2024-02-28T02:22:02;8.85;;;2.17;;
74375;SDS011;62812;55.188;61.302;2024-02-28T02:24:35;12.90;;;1.80;;
74375;SDS011;62812;55.188;61.302;2024-02-28T02:27:02;18.90;;;2.03;;
74375;SDS011;62812;55.188;61.302;2024-02-28T02:29:30;13.95;;;1.85;;
74375;SDS011;62812;55.188;61.302;2024-02-28T02:31:57;16.25;;;2.30;;
74375;SDS011;62812;55.188;61.302;2024-02-28T02:34:24;20.83;;;2.85;;
74375;SDS011;62812;55.188;61.302;2024-02-28T02:36:51;7.82;;;2.17;;
74375;SDS011;62812;55.188;61.302;2024-02-28T02:39:18;12.68;;;1.73;;
74375;SDS011;62812;55.188;61.302;2024-02-28T02:41:46;11.18;;;2.05;;
74375;SDS011;62812;55.188;61.302;2024-02-28T02:44:13;22.58;;;2.45;;
74375;SDS011;62812;55.188;61.302;2024-02-28T02:46:40;10.98;;;2.50;;
74375;SDS011;62812;55.188;61.302;2024-02-28T02:49:06;15.07;;;2.00;;
74375;SDS011;62812;55.188;61.302;2024-02-28T02:51:33;17.92;;;2.45;;
74375;SDS011;62812;55.188;61.302;2024-02-28T02:54:00;9.85;;;1.95;;
74375;SDS011;62812;55.188;61.302;2024-02-28T02:56:26;23.33;;;2.90;;
74375;SDS011;62812;55.188;61.302;2024-02-28T02:58:55;17.33;;;2.85;;
74375;SDS011;62812;55.188;61.302;2024-02-28T03:01:21;11.90;;;2.35;;
74375;SDS011;62812;55.188;61.302;2024-02-28T03:03:49;15.18;;;2.35;;
74375;SDS011;62812;55.188;61.302;2024-02-28T03:06:15;7.70;;;1.67;;
74375;SDS011;62812;55.188;61.302;2024-02-28T03:08:42;11.52;;;1.90;;
74375;SDS011;62812;55.188;61.302;2024-02-28T03:11:09;16.67;;;2.38;;
74375;SDS011;62812;55.188;61.302;2024-02-28T03:13:37;15.43;;;2.60;;
74375;SDS011;62812;55.188;61.302;2024-02-28T03:16:06;20.13;;;3.15;;
74375;SDS011;62812;55.188;61.302;2024-02-28T03:18:33;29.20;;;3.72;;
74375;SDS011;62812;55.188;61.302;2024-02-28T03:20:59;21.30;;;2.92;;
74375;SDS011;62812;55.188;61.302;2024-02-28T03:23:26;21.02;;;3.15;;
74375;SDS011;62812;55.188;61.302;2024-02-28T03:25:53;25.70;;;3.42;;
74375;SDS011;62812;55.188;61.302;2024-02-28T03:28:20;26.63;;;2.47;;
74375;SDS011;62812;55.188;61.302;2024-02-28T03:30:46;11.27;;;2.80;;
74375;SDS011;62812;55.188;61.302;2024-02-28T03:33:14;16.92;;;2.80;;
74375;SDS011;62812;55.188;61.302;2024-02-28T03:35:41;14.55;;;2.60;;
74375;SDS011;62812;55.188;61.302;2024-02-28T03:38:08;20.13;;;2.60;;
74375;SDS011;62812;55.188;61.302;2024-02-28T03:40:34;9.95;;;2.10;;
74375;SDS011;62812;55.188;61.302;2024-02-28T03:43:01;15.18;;;2.58;;
74375;SDS011;62812;55.188;61.302;2024-02-28T03:45:28;20.05;;;2.22;;
74375;SDS011;62812;55.188;61.302;2024-02-28T03:47:55;22.27;;;2.55;;
74375;SDS011;62812;55.188;61.302;2024-02-28T03:50:24;17.45;;;2.80;;
74375;SDS011;62812;55.188;61.302;2024-02-28T03:52:51;14.50;;;2.70;;
74375;SDS011;62812;55.188;61.302;2024-02-28T03:55:17;24.75;;;1.92;;
74375;SDS011;62812;55.188;61.302;2024-02-28T03:57:46;22.55;;;3.17;;
74375;SDS011;62812;55.188;61.302;2024-02-28T04:00:13;19.88;;;2.28;;
74375;SDS011;62812;55.188;61.302;2024-02-28T04:02:40;31.55;;;3.35;;
74375;SDS011;62812;55.188;61.302;2024-02-28T04:05:07;36.42;;;3.63;;
74375;SDS011;62812;55.188;61.302;2024-02-28T04:07:35;52.83;;;3.75;;
74375;SDS011;62812;55.188;61.302;2024-02-28T04:10:02;16.35;;;2.85;;
74375;SDS011;62812;55.188;61.302;2024-02-28T04:12:31;32.60;;;4.10;;
74375;SDS011;62812;55.188;61.302;2024-02-28T04:14:57;33.65;;;4.20;;
74375;SDS011;62812;55.188;61.302;2024-02-28T04:17:25;23.35;;;3.67;;
74375;SDS011;62812;55.188;61.302;2024-02-28T04:19:52;30.25;;;3.75;;
74375;SDS011;62812;55.188;61.302;2024-02-28T04:22:24;27.70;;;3.00;;
74375;SDS011;62812;55.188;61.302;2024-02-28T04:24:55;36.28;;;4.82;;
74375;SDS011;62812;55.188;61.302;2024-02-28T04:27:22;25.02;;;3.50;;
74375;SDS011;62812;55.188;61.302;2024-02-28T04:29:49;21.13;;;3.03;;
74375;SDS011;62812;55.188;61.302;2024-02-28T04:32:15;12.90;;;2.25;;
74375;SDS011;62812;55.188;61.302;2024-02-28T04:34:42;21.88;;;3.05;;
74375;SDS011;62812;55.188;61.302;2024-02-28T04:37:10;16.70;;;2.40;;
74375;SDS011;62812;55.188;61.302;2024-02-28T04:39:37;22.90;;;2.97;;
74375;SDS011;62812;55.188;61.302;2024-02-28T04:42:06;17.95;;;3.13;;
74375;SDS011;62812;55.188;61.302;2024-02-28T04:44:34;25.42;;;4.07;;
74375;SDS011;62812;55.188;61.302;2024-02-28T04:47:01;18.50;;;2.38;;
74375;SDS011;62812;55.188;61.302;2024-02-28T04:49:28;13.20;;;2.17;;
74375;SDS011;62812;55.188;61.302;2024-02-28T04:51:58;14.48;;;2.33;;
74375;SDS011;62812;55.188;61.302;2024-02-28T04:54:24;18.35;;;2.45;;
74375;SDS011;62812;55.188;61.302;2024-02-28T04:56:54;15.63;;;1.85;;
74375;SDS011;62812;55.188;61.302;2024-02-28T04:59:22;8.57;;;2.03;;
74375;SDS011;62812;55.188;61.302;2024-02-28T05:01:49;8.45;;;2.75;;
74375;SDS011;62812;55.188;61.302;2024-02-28T05:04:17;9.95;;;1.90;;
74375;SDS011;62812;55.188;61.302;2024-02-28T05:06:44;13.60;;;2.08;;
74375;SDS011;62812;55.188;61.302;2024-02-28T05:09:10;14.25;;;2.13;;
74375;SDS011;62812;55.188;61.302;2024-02-28T05:11:38;9.63;;;2.05;;
74375;SDS011;62812;55.188;61.302;2024-02-28T05:14:04;10.18;;;1.48;;
74375;SDS011;62812;55.188;61.302;2024-02-28T05:16:36;6.38;;;1.58;;
74375;SDS011;62812;55.188;61.302;2024-02-28T05:19:03;4.53;;;1.70;;
74375;SDS011;62812;55.188;61.302;2024-02-28T05:21:31;8.52;;;1.42;;
74375;SDS011;62812;55.188;61.302;2024-02-28T05:23:58;5.97;;;1.50;;
74375;SDS011;62812;55.188;61.302;2024-02-28T05:26:31;9.05;;;1.08;;
74375;SDS011;62812;55.188;61.302;2024-02-28T05:29:00;12.30;;;2.08;;
74375;SDS011;62812;55.188;61.302;2024-02-28T05:31:27;4.85;;;1.30;;
74375;SDS011;62812;55.188;61.302;2024-02-28T05:33:56;11.80;;;2.00;;
74375;SDS011;62812;55.188;61.302;2024-02-28T05:36:25;10.77;;;2.55;;
74375;SDS011;62812;55.188;61.302;2024-02-28T05:38:54;7.60;;;1.52;;
74375;SDS011;62812;55.188;61.302;2024-02-28T05:41:21;11.02;;;1.40;;
74375;SDS011;62812;55.188;61.302;2024-02-28T05:43:49;13.32;;;2.40;;
74375;SDS011;62812;55.188;61.302;2024-02-28T05:46:16;11.38;;;1.73;;
74375;SDS011;62812;55.188;61.302;2024-02-28T05:48:43;7.28;;;1.50;;
74375;SDS011;62812;55.188;61.302;2024-02-28T05:51:13;7.63;;;1.42;;
74375;SDS011;62812;55.188;61.302;2024-02-28T05:53:40;15.32;;;2.35;;
74375;SDS011;62812;55.188;61.302;2024-02-28T05:56:08;7.95;;;1.88;;
74375;SDS011;62812;55.188;61.302;2024-02-28T05:58:39;8.80;;;1.60;;
74375;SDS011;62812;55.188;61.302;2024-02-28T06:01:06;5.45;;;1.38;;
74375;SDS011;62812;55.188;61.302;2024-02-28T06:03:34;5.38;;;1.15;;
74375;SDS011;62812;55.188;61.302;2024-02-28T06:06:01;3.53;;;0.90;;
74375;SDS011;62812;55.188;61.302;2024-02-28T06:08:32;4.00;;;0.90;;
74375;SDS011;62812;55.188;61.302;2024-02-28T06:10:59;8.27;;;1.00;;
74375;SDS011;62812;55.188;61.302;2024-02-28T06:13:26;4.28;;;0.65;;
74375;SDS011;62812;55.188;61.302;2024-02-28T06:15:57;4.85;;;1.52;;
74375;SDS011;62812;55.188;61.302;2024-02-28T06:18:25;8.82;;;1.00;;
74375;SDS011;62812;55.188;61.302;2024-02-28T06:20:59;2.78;;;0.60;;
74375;SDS011;62812;55.188;61.302;2024-02-28T06:23:27;8.35;;;1.80;;
74375;SDS011;62812;55.188;61.302;2024-02-28T06:25:55;7.85;;;0.75;;
74375;SDS011;62812;55.188;61.302;2024-02-28T06:28:22;3.30;;;0.77;;
74375;SDS011;62812;55.188;61.302;2024-02-28T06:30:51;5.38;;;0.90;;
74375;SDS011;62812;55.188;61.302;2024-02-28T06:33:18;2.33;;;0.43;;
74375;SDS011;62812;55.188;61.302;2024-02-28T06:35:47;4.68;;;0.73;;
74375;SDS011;62812;55.188;61.302;2024-02-28T06:38:14;2.85;;;0.63;;
74375;SDS011;62812;55.188;61.302;2024-02-28T06:40:40;3.10;;;0.88;;
74375;SDS011;62812;55.188;61.302;2024-02-28T06:43:08;5.07;;;0.93;;
74375;SDS011;62812;55.188;61.302;2024-02-28T06:45:35;7.60;;;0.70;;
74375;SDS011;62812;55.188;61.302;2024-02-28T06:48:03;2.97;;;1.00;;
74375;SDS011;62812;55.188;61.302;2024-02-28T06:50:30;6.18;;;0.80;;
74375;SDS011;62812;55.188;61.302;2024-02-28T06:52:56;2.15;;;0.60;;
74375;SDS011;62812;55.188;61.302;2024-02-28T06:55:23;5.13;;;1.77;;
74375;SDS011;62812;55.188;61.302;2024-02-28T06:57:52;2.08;;;0.47;;
74375;SDS011;62812;55.188;61.302;2024-02-28T07:00:21;2.35;;;0.50;;
74375;SDS011;62812;55.188;61.302;2024-02-28T07:02:47;3.55;;;0.70;;
74375;SDS011;62812;55.188;61.302;2024-02-28T07:05:14;5.78;;;0.52;;
74375;SDS011;62812;55.188;61.302;2024-02-28T07:07:41;2.08;;;0.55;;
74375;SDS011;62812;55.188;61.302;2024-02-28T07:10:07;4.35;;;0.93;;
74375;SDS011;62812;55.188;61.302;2024-02-28T07:12:34;3.38;;;0.68;;
74375;SDS011;62812;55.188;61.302;2024-02-28T07:15:01;3.78;;;0.68;;
74375;SDS011;62812;55.188;61.302;2024-02-28T07:17:30;3.60;;;0.57;;
74375;SDS011;62812;55.188;61.302;2024-02-28T07:19:57;5.50;;;0.93;;
74375;SDS011;62812;55.188;61.302;2024-02-28T07:22:25;2.97;;;0.60;;
74375;SDS011;62812;55.188;61.302;2024-02-28T07:24:52;2.05;;;0.30;;
74375;SDS011;62812;55.188;61.302;2024-02-28T07:27:22;3.97;;;0.57;;
74375;SDS011;62812;55.188;61.302;2024-02-28T07:29:51;1.42;;;0.50;;
74375;SDS011;62812;55.188;61.302;2024-02-28T07:32:18;3.92;;;0.77;;
74375;SDS011;62812;55.188;61.302;2024-02-28T07:34:46;5.30;;;0.70;;
74375;SDS011;62812;55.188;61.302;2024-02-28T07:37:13;8.70;;;0.65;;
74375;SDS011;62812;55.188;61.302;2024-02-28T07:39:41;2.20;;;0.60;;
74375;SDS011;62812;55.188;61.302;2024-02-28T07:42:08;1.73;;;0.50;;
74375;SDS011;62812;55.188;61.302;2024-02-28T07:44:37;2.55;;;0.70;;
74375;SDS011;62812;55.188;61.302;2024-02-28T07:47:06;3.28;;;0.85;;
74375;SDS011;62812;55.188;61.302;2024-02-28T07:49:33;3.70;;;0.77;;
74375;SDS011;62812;55.188;61.302;2024-02-28T07:52:03;4.93;;;0.73;;
74375;SDS011;62812;55.188;61.302;2024-02-28T07:54:30;2.85;;;0.60;;
74375;SDS011;62812;55.188;61.302;2024-02-28T07:56:56;4.60;;;0.55;;
74375;SDS011;62812;55.188;61.302;2024-02-28T07:59:23;4.32;;;0.70;;
74375;SDS011;62812;55.188;61.302;2024-02-28T08:01:49;2.83;;;1.00;;
74375;SDS011;62812;55.188;61.302;2024-02-28T08:04:16;5.85;;;1.55;;
74375;SDS011;62812;55.188;61.302;2024-02-28T08:06:43;1.83;;;0.40;;
74375;SDS011;62812;55.188;61.302;2024-02-28T08:09:12;3.90;;;0.55;;
74375;SDS011;62812;55.188;61.302;2024-02-28T08:11:41;3.83;;;1.20;;
74375;SDS011;62812;55.188;61.302;2024-02-28T08:14:10;2.35;;;0.55;;
74375;SDS011;62812;55.188;61.302;2024-02-28T08:16:37;3.70;;;1.23;;
74375;SDS011;62812;55.188;61.302;2024-02-28T08:19:04;4.60;;;1.10;;
74375;SDS011;62812;55.188;61.302;2024-02-28T08:21:31;7.30;;;1.45;;
74375;SDS011;62812;55.188;61.302;2024-02-28T08:23:59;2.95;;;1.13;;
74375;SDS011;62812;55.188;61.302;2024-02-28T08:26:33;3.42;;;0.70;;
74375;SDS011;62812;55.188;61.302;2024-02-28T08:29:01;6.72;;;1.20;;
74375;SDS011;62812;55.188;61.302;2024-02-28T08:31:29;3.22;;;1.10;;
74375;SDS011;62812;55.188;61.302;2024-02-28T08:33:58;3.53;;;0.73;;
74375;SDS011;62812;55.188;61.302;2024-02-28T08:36:40;4.60;;;1.10;;
74375;SDS011;62812;55.188;61.302;2024-02-28T08:39:07;3.53;;;1.10;;
74375;SDS011;62812;55.188;61.302;2024-02-28T08:41:36;4.30;;;1.05;;
74375;SDS011;62812;55.188;61.302;2024-02-28T08:44:03;2.42;;;0.73;;
74375;SDS011;62812;55.188;61.302;2024-02-28T08:46:30;6.10;;;0.60;;
74375;SDS011;62812;55.188;61.302;2024-02-28T08:48:57;4.20;;;0.82;;
74375;SDS011;62812;55.188;61.302;2024-02-28T08:51:24;4.97;;;1.40;;
74375;SDS011;62812;55.188;61.302;2024-02-28T08:53:50;7.13;;;0.75;;
74375;SDS011;62812;55.188;61.302;2024-02-28T08:56:19;4.03;;;0.70;;
74375;SDS011;62812;55.188;61.302;2024-02-28T08:58:47;2.08;;;0.57;;
74375;SDS011;62812;55.188;61.302;2024-02-28T09:01:14;2.97;;;0.80;;
74375;SDS011;62812;55.188;61.302;2024-02-28T09:03:41;1.55;;;0.50;;
74375;SDS011;62812;55.188;61.302;2024-02-28T09:06:09;2.33;;;0.60;;
74375;SDS011;62812;55.188;61.302;2024-02-28T09:08:37;3.60;;;0.80;;
74375;SDS011;62812;55.188;61.302;2024-02-28T09:11:05;5.30;;;1.75;;
74375;SDS011;62812;55.188;61.302;2024-02-28T09:13:35;2.75;;;0.70;;
74375;SDS011;62812;55.188;61.302;2024-02-28T09:16:07;2.35;;;0.57;;
74375;SDS011;62812;55.188;61.302;2024-02-28T09:18:34;1.90;;;0.60;;
74375;SDS011;62812;55.188;61.302;2024-02-28T09:21:02;6.05;;;0.63;;
74375;SDS011;62812;55.188;61.302;2024-02-28T09:23:33;1.15;;;0.30;;
74375;SDS011;62812;55.188;61.302;2024-02-28T09:26:03;3.20;;;0.90;;
74375;SDS011;62812;55.188;61.302;2024-02-28T09:28:32;3.90;;;0.63;;
74375;SDS011;62812;55.188;61.302;2024-02-28T09:31:01;3.17;;;0.50;;
74375;SDS011;62812;55.188;61.302;2024-02-28T09:33:34;3.33;;;0.60;;
74375;SDS011;62812;55.188;61.302;2024-02-28T09:36:01;1.98;;;0.43;;
74375;SDS011;62812;55.188;61.302;2024-02-28T09:38:29;4.18;;;0.90;;
74375;SDS011;62812;55.188;61.302;2024-02-28T09:40:55;1.35;;;0.40;;
74375;SDS011;62812;55.188;61.302;2024-02-28T09:43:24;3.60;;;1.10;;
74375;SDS011;62812;55.188;61.302;2024-02-28T09:45:57;2.78;;;0.80;;
74375;SDS011;62812;55.188;61.302;2024-02-28T09:48:28;2.05;;;0.70;;
74375;SDS011;62812;55.188;61.302;2024-02-28T09:50:59;4.00;;;0.80;;
74375;SDS011;62812;55.188;61.302;2024-02-28T09:53:26;5.05;;;0.98;;
74375;SDS011;62812;55.188;61.302;2024-02-28T09:55:53;3.08;;;0.80;;
74375;SDS011;62812;55.188;61.302;2024-02-28T09:58:19;2.05;;;0.68;;
74375;SDS011;62812;55.188;61.302;2024-02-28T10:00:49;3.22;;;0.80;;
74375;SDS011;62812;55.188;61.302;2024-02-28T10:03:22;2.22;;;0.60;;
74375;SDS011;62812;55.188;61.302;2024-02-28T10:05:51;1.48;;;0.45;;
74375;SDS011;62812;55.188;61.302;2024-02-28T10:08:19;2.05;;;0.50;;
74375;SDS011;62812;55.188;61.302;2024-02-28T10:10:46;4.13;;;0.80;;
74375;SDS011;62812;55.188;61.302;2024-02-28T10:13:13;3.95;;;0.93;;
74375;SDS011;62812;55.188;61.302;2024-02-28T10:15:41;4.18;;;0.60;;
74375;SDS011;62812;55.188;61.302;2024-02-28T10:18:08;3.17;;;0.80;;
74375;SDS011;62812;55.188;61.302;2024-02-28T10:20:35;2.35;;;0.52;;
74375;SDS011;62812;55.188;61.302;2024-02-28T10:23:03;2.47;;;0.50;;
74375;SDS011;62812;55.188;61.302;2024-02-28T10:25:41;4.15;;;0.82;;
74375;SDS011;62812;55.188;61.302;2024-02-28T10:28:09;2.42;;;0.77;;
74375;SDS011;62812;55.188;61.302;2024-02-28T10:30:38;3.72;;;0.77;;
74375;SDS011;62812;55.188;61.302;2024-02-28T10:33:09;4.32;;;0.95;;
74375;SDS011;62812;55.188;61.302;2024-02-28T10:35:36;8.38;;;1.50;;
74375;SDS011;62812;55.188;61.302;2024-02-28T10:38:03;6.53;;;1.42;;
74375;SDS011;62812;55.188;61.302;2024-02-28T10:40:31;4.47;;;0.80;;
74375;SDS011;62812;55.188;61.302;2024-02-28T10:42:59;2.60;;;0.88;;
74375;SDS011;62812;55.188;61.302;2024-02-28T10:45:27;2.10;;;0.60;;
74375;SDS011;62812;55.188;61.302;2024-02-28T10:47:58;4.18;;;1.08;;
74375;SDS011;62812;55.188;61.302;2024-02-28T10:50:28;2.53;;;0.85;;
74375;SDS011;62812;55.188;61.302;2024-02-28T10:52:55;3.03;;;0.80;;
74375;SDS011;62812;55.188;61.302;2024-02-28T10:55:26;4.18;;;0.95;;
74375;SDS011;62812;55.188;61.302;2024-02-28T10:58:01;3.88;;;0.93;;
74375;SDS011;62812;55.188;61.302;2024-02-28T11:00:29;7.20;;;0.95;;
74375;SDS011;62812;55.188;61.302;2024-02-28T11:03:01;5.47;;;1.15;;
74375;SDS011;62812;55.188;61.302;2024-02-28T11:05:41;8.35;;;1.25;;
74375;SDS011;62812;55.188;61.302;2024-02-28T11:08:08;5.50;;;0.98;;
74375;SDS011;62812;55.188;61.302;2024-02-28T11:10:39;2.53;;;0.73;;
74375;SDS011;62812;55.188;61.302;2024-02-28T11:13:09;4.18;;;1.02;;
74375;SDS011;62812;55.188;61.302;2024-02-28T11:15:36;2.90;;;1.00;;
74375;SDS011;62812;55.188;61.302;2024-02-28T11:18:06;2.42;;;0.80;;
74375;SDS011;62812;55.188;61.302;2024-02-28T11:20:35;3.55;;;0.80;;
74375;SDS011;62812;55.188;61.302;2024-02-28T11:23:01;6.45;;;1.40;;
74375;SDS011;62812;55.188;61.302;2024-02-28T11:27:58;4.22;;;0.85;;
74375;SDS011;62812;55.188;61.302;2024-02-28T11:30:26;3.15;;;1.00;;
74375;SDS011;62812;55.188;61.302;2024-02-28T11:32:53;3.45;;;1.02;;
74375;SDS011;62812;55.188;61.302;2024-02-28T11:35:23;5.03;;;1.50;;
74375;SDS011;62812;55.188;61.302;2024-02-28T11:37:49;6.00;;;2.63;;
74375;SDS011;62812;55.188;61.302;2024-02-28T11:40:17;5.45;;;1.20;;
74375;SDS011;62812;55.188;61.302;2024-02-28T11:42:44;8.85;;;1.45;;
74375;SDS011;62812;55.188;61.302;2024-02-28T11:45:10;4.13;;;1.50;;
74375;SDS011;62812;55.188;61.302;2024-02-28T11:47:42;2.97;;;1.10;;
74375;SDS011;62812;55.188;61.302;2024-02-28T11:50:08;4.80;;;1.63;;
74375;SDS011;62812;55.188;61.302;2024-02-28T11:52:35;6.25;;;2.20;;
74375;SDS011;62812;55.188;61.302;2024-02-28T11:55:03;5.30;;;1.95;;
74375;SDS011;62812;55.188;61.302;2024-02-28T11:57:30;6.13;;;1.60;;
74375;SDS011;62812;55.188;61.302;2024-02-28T12:02:29;7.70;;;1.15;;
74375;SDS011;62812;55.188;61.302;2024-02-28T12:05:01;6.13;;;2.00;;
74375;SDS011;62812;55.188;61.302;2024-02-28T12:07:30;5.75;;;1.65;;
74375;SDS011;62812;55.188;61.302;2024-02-28T12:09:57;7.13;;;2.15;;
74375;SDS011;62812;55.188;61.302;2024-02-28T12:12:24;4.60;;;1.63;;
74375;SDS011;62812;55.188;61.302;2024-02-28T12:14:52;6.68;;;2.30;;
74375;SDS011;62812;55.188;61.302;2024-02-28T12:17:24;5.03;;;2.05;;
74375;SDS011;62812;55.188;61.302;2024-02-28T12:19:51;8.82;;;3.55;;
74375;SDS011;62812;55.188;61.302;2024-02-28T12:22:19;9.50;;;2.42;;
74375;SDS011;62812;55.188;61.302;2024-02-28T12:24:47;8.18;;;2.03;;
74375;SDS011;62812;55.188;61.302;2024-02-28T12:27:13;7.30;;;2.30;;
74375;SDS011;62812;55.188;61.302;2024-02-28T12:29:43;6.53;;;1.92;;
74375;SDS011;62812;55.188;61.302;2024-02-28T12:32:10;6.43;;;1.52;;
74375;SDS011;62812;55.188;61.302;2024-02-28T12:34:38;3.75;;;1.40;;
74375;SDS011;62812;55.188;61.302;2024-02-28T12:37:06;6.70;;;1.50;;
74375;SDS011;62812;55.188;61.302;2024-02-28T12:39:34;4.53;;;1.00;;
74375;SDS011;62812;55.188;61.302;2024-02-28T12:42:01;5.75;;;2.00;;
74375;SDS011;62812;55.188;61.302;2024-02-28T12:44:28;6.65;;;1.40;;
74375;SDS011;62812;55.188;61.302;2024-02-28T12:46:56;4.25;;;1.85;;
74375;SDS011;62812;55.188;61.302;2024-02-28T12:49:24;5.85;;;1.35;;
74375;SDS011;62812;55.188;61.302;2024-02-28T12:51:57;5.10;;;1.33;;
74375;SDS011;62812;55.188;61.302;2024-02-28T12:54:27;4.53;;;1.65;;
74375;SDS011;62812;55.188;61.302;2024-02-28T12:56:55;7.03;;;2.42;;
74375;SDS011;62812;55.188;61.302;2024-02-28T12:59:22;4.82;;;1.52;;
74375;SDS011;62812;55.188;61.302;2024-02-28T13:01:49;4.65;;;1.30;;
74375;SDS011;62812;55.188;61.302;2024-02-28T13:04:16;4.93;;;1.63;;
74375;SDS011;62812;55.188;61.302;2024-02-28T13:06:44;3.53;;;1.25;;
74375;SDS011;62812;55.188;61.302;2024-02-28T13:09:11;10.55;;;2.10;;
74375;SDS011;62812;55.188;61.302;2024-02-28T13:11:41;6.10;;;2.15;;
74375;SDS011;62812;55.188;61.302;2024-02-28T13:14:10;8.70;;;2.95;;
74375;SDS011;62812;55.188;61.302;2024-02-28T13:16:36;22.33;;;10.48;;
74375;SDS011;62812;55.188;61.302;2024-02-28T13:19:06;12.07;;;3.13;;
74375;SDS011;62812;55.188;61.302;2024-02-28T13:21:32;11.48;;;4.78;;
74375;SDS011;62812;55.188;61.302;2024-02-28T13:24:00;10.02;;;3.88;;
74375;SDS011;62812;55.188;61.302;2024-02-28T13:26:27;9.65;;;3.38;;
74375;SDS011;62812;55.188;61.302;2024-02-28T13:28:54;12.32;;;4.75;;
74375;SDS011;62812;55.188;61.302;2024-02-28T13:31:22;9.35;;;2.67;;
74375;SDS011;62812;55.188;61.302;2024-02-28T13:33:52;16.95;;;5.05;;
74375;SDS011;62812;55.188;61.302;2024-02-28T13:36:24;13.13;;;3.45;;
74375;SDS011;62812;55.188;61.302;2024-02-28T13:38:50;9.93;;;2.00;;
74375;SDS011;62812;55.188;61.302;2024-02-28T13:41:22;9.70;;;3.00;;
74375;SDS011;62812;55.188;61.302;2024-02-28T13:43:49;6.18;;;1.83;;
74375;SDS011;62812;55.188;61.302;2024-02-28T13:46:16;8.43;;;2.75;;
74375;SDS011;62812;55.188;61.302;2024-02-28T13:48:46;6.65;;;1.65;;
74375;SDS011;62812;55.188;61.302;2024-02-28T13:51:18;7.70;;;1.88;;
74375;SDS011;62812;55.188;61.302;2024-02-28T13:53:51;7.72;;;2.05;;
74375;SDS011;62812;55.188;61.302;2024-02-28T13:56:26;11.10;;;3.78;;
74375;SDS011;62812;55.188;61.302;2024-02-28T13:58:53;8.20;;;2.63;;
74375;SDS011;62812;55.188;61.302;2024-02-28T14:01:20;9.95;;;2.60;;
74375;SDS011;62812;55.188;61.302;2024-02-28T14:03:48;4.82;;;1.65;;
74375;SDS011;62812;55.188;61.302;2024-02-28T14:06:15;3.75;;;1.38;;
74375;SDS011;62812;55.188;61.302;2024-02-28T14:08:42;6.35;;;1.52;;
74375;SDS011;62812;55.188;61.302;2024-02-28T14:11:09;6.13;;;1.20;;
74375;SDS011;62812;55.188;61.302;2024-02-28T14:13:36;7.93;;;1.20;;
74375;SDS011;62812;55.188;61.302;2024-02-28T14:16:05;3.85;;;1.10;;
74375;SDS011;62812;55.188;61.302;2024-02-28T14:18:32;9.43;;;1.38;;
74375;SDS011;62812;55.188;61.302;2024-02-28T14:21:02;4.63;;;1.20;;
74375;SDS011;62812;55.188;61.302;2024-02-28T14:23:39;6.28;;;2.13;;
74375;SDS011;62812;55.188;61.302;2024-02-28T14:26:07;7.93;;;2.13;;
74375;SDS011;62812;55.188;61.302;2024-02-28T14:28:35;10.15;;;1.63;;
74375;SDS011;62812;55.188;61.302;2024-02-28T14:31:03;5.55;;;0.90;;
74375;SDS011;62812;55.188;61.302;2024-02-28T14:33:29;7.60;;;0.93;;
74375;SDS011;62812;55.188;61.302;2024-02-28T14:35:57;2.15;;;0.75;;
74375;SDS011;62812;55.188;61.302;2024-02-28T14:38:29;3.97;;;0.85;;
74375;SDS011;62812;55.188;61.302;2024-02-28T14:40:56;2.47;;;0.95;;